createdAt,value
2018-05-12T00:00:47.159Z,13.70
2018-05-12T00:03:13.415Z,13.60
2018-05-12T00:05:40.365Z,13.50
2018-05-12T00:08:07.384Z,13.50
2018-05-12T00:10:33.626Z,13.50
2018-05-12T00:12:59.877Z,13.50
2018-05-12T00:15:26.115Z,13.50
2018-05-12T00:17:52.447Z,13.50
2018-05-12T00:20:18.660Z,13.50
2018-05-12T00:22:44.899Z,13.40
2018-05-12T00:25:11.114Z,13.40
2018-05-12T00:27:38.091Z,13.30
2018-05-12T00:30:04.362Z,13.30
2018-05-12T00:32:30.611Z,13.30
2018-05-12T00:34:56.838Z,13.30
2018-05-12T00:37:23.087Z,13.30
2018-05-12T00:39:49.470Z,13.30
2018-05-12T00:42:15.715Z,13.20
2018-05-12T00:44:41.968Z,13.20
2018-05-12T00:47:08.931Z,13.20
2018-05-12T00:49:35.904Z,13.20
2018-05-12T00:52:02.148Z,13.20
2018-05-12T00:54:28.390Z,13.20
2018-05-12T00:56:54.617Z,13.20
2018-05-12T00:59:20.862Z,13.10
2018-05-12T01:01:47.078Z,13.10
2018-05-12T01:04:14.052Z,13.10
2018-05-12T01:06:40.310Z,13.00
2018-05-12T01:09:06.553Z,13.10
2018-05-12T01:11:32.774Z,13.10
2018-05-12T01:13:59.003Z,13.10
2018-05-12T01:16:25.980Z,13.00
2018-05-12T01:18:52.262Z,13.00
2018-05-12T01:21:18.488Z,13.10
2018-05-12T01:23:44.726Z,13.00
2018-05-12T01:26:10.950Z,13.00
2018-05-12T01:28:37.214Z,13.00
2018-05-12T01:31:03.480Z,13.00
2018-05-12T01:33:29.724Z,13.00
2018-05-12T01:35:55.981Z,13.00
2018-05-12T01:38:22.946Z,13.00
2018-05-12T01:40:50.037Z,13.00
2018-05-12T01:43:16.295Z,12.90
2018-05-12T01:45:42.528Z,12.90
2018-05-12T01:48:08.762Z,12.90
2018-05-12T01:50:35.001Z,12.80
2018-05-12T01:53:01.258Z,12.70
2018-05-12T01:55:27.481Z,12.70
2018-05-12T01:57:53.690Z,12.70
2018-05-12T02:00:20.681Z,12.70
2018-05-12T02:02:46.903Z,12.70
2018-05-12T02:05:13.129Z,12.70
2018-05-12T02:07:40.079Z,12.70
2018-05-12T02:10:07.089Z,12.70
2018-05-12T02:12:33.357Z,12.70
2018-05-12T02:14:59.593Z,12.70
2018-05-12T02:17:25.815Z,12.60
2018-05-12T02:19:52.057Z,12.60
2018-05-12T02:22:18.296Z,12.60
2018-05-12T02:24:44.527Z,12.60
2018-05-12T02:27:10.747Z,12.60
2018-05-12T02:29:36.999Z,12.60
2018-05-12T02:32:03.235Z,12.60
2018-05-12T02:34:29.462Z,12.70
2018-05-12T02:36:55.683Z,12.70
2018-05-12T02:39:22.649Z,12.70
2018-05-12T02:41:49.838Z,12.70
2018-05-12T02:44:16.096Z,12.60
2018-05-12T02:46:42.327Z,12.60
2018-05-12T02:49:08.681Z,12.60
2018-05-12T02:51:34.825Z,12.60
2018-05-12T02:54:01.079Z,12.60
2018-05-12T02:56:27.301Z,12.60
2018-05-12T02:58:53.530Z,12.60
2018-05-12T03:01:19.746Z,12.60
2018-05-12T03:03:45.971Z,12.50
2018-05-12T03:06:12.954Z,12.50
2018-05-12T03:08:39.183Z,12.50
2018-05-12T03:11:05.425Z,12.50
2018-05-12T03:13:31.730Z,12.50
2018-05-12T03:15:57.968Z,12.50
2018-05-12T03:18:24.175Z,12.50
2018-05-12T03:20:50.414Z,12.50
2018-05-12T03:23:16.710Z,12.50
2018-05-12T03:25:43.686Z,12.50
2018-05-12T03:28:09.913Z,12.50
2018-05-12T03:30:36.896Z,12.40
2018-05-12T03:33:03.132Z,12.40
2018-05-12T03:35:29.376Z,12.40
2018-05-12T03:37:55.590Z,12.40
2018-05-12T03:40:22.582Z,12.30
2018-05-12T03:42:48.926Z,12.30
2018-05-12T03:45:15.178Z,12.20
2018-05-12T03:47:41.386Z,12.20
2018-05-12T03:50:07.630Z,12.20
2018-05-12T03:52:33.859Z,12.10
2018-05-12T03:55:00.111Z,12.00
2018-05-12T03:57:26.335Z,12.00
2018-05-12T03:59:53.307Z,12.00
2018-05-12T04:02:20.273Z,11.90
2018-05-12T04:04:58.689Z,11.90
2018-05-12T04:07:38.761Z,11.90
2018-05-12T04:10:17.215Z,11.90
2018-05-12T04:12:43.461Z,11.90
2018-05-12T04:15:09.686Z,11.90
2018-05-12T04:17:35.961Z,11.90
2018-05-12T04:20:02.216Z,11.90
2018-05-12T04:22:29.210Z,11.90
2018-05-12T04:24:55.433Z,11.90
2018-05-12T04:27:22.427Z,12.00
2018-05-12T04:29:48.631Z,12.00
2018-05-12T04:32:14.857Z,12.20
2018-05-12T04:34:41.821Z,12.90
2018-05-12T04:37:08.823Z,12.90
2018-05-12T04:39:35.025Z,12.90
2018-05-12T04:42:02.029Z,12.90
2018-05-12T04:44:28.263Z,12.90
2018-05-12T04:46:54.491Z,12.90
2018-05-12T04:49:20.716Z,12.80
2018-05-12T04:51:46.961Z,12.80
2018-05-12T04:54:13.241Z,12.80
2018-05-12T04:56:39.448Z,12.80
2018-05-12T04:59:05.679Z,12.80
2018-05-12T05:01:31.921Z,12.90
2018-05-12T05:03:58.166Z,12.90
2018-05-12T05:06:24.396Z,13.00
2018-05-12T05:08:50.629Z,13.00
2018-05-12T05:11:17.615Z,13.10
2018-05-12T05:13:43.891Z,13.10
2018-05-12T05:16:10.140Z,13.10
2018-05-12T05:18:36.367Z,13.20
2018-05-12T05:21:02.582Z,13.30
2018-05-12T05:23:28.824Z,13.50
2018-05-12T05:25:55.031Z,13.50
2018-05-12T05:28:22.003Z,13.60
2018-05-12T05:30:48.245Z,13.50
2018-05-12T05:33:14.488Z,13.50
2018-05-12T05:35:40.712Z,13.60
2018-05-12T05:38:06.950Z,13.80
2018-05-12T05:40:33.903Z,14.00
2018-05-12T05:43:00.867Z,14.10
2018-05-12T05:45:27.850Z,14.10
2018-05-12T05:47:54.088Z,14.20
2018-05-12T05:50:20.330Z,14.20
2018-05-12T05:52:46.570Z,14.30
2018-05-12T05:55:12.790Z,14.30
2018-05-12T05:57:39.036Z,14.40
2018-05-12T06:00:05.309Z,14.50
2018-05-12T06:02:31.530Z,14.50
2018-05-12T06:04:57.746Z,14.50
2018-05-12T06:07:24.732Z,14.60
2018-05-12T06:09:50.950Z,14.60
2018-05-12T06:12:17.263Z,14.70
2018-05-12T06:14:43.490Z,14.80
2018-05-12T06:17:09.742Z,14.90
2018-05-12T06:19:35.954Z,15.00
2018-05-12T06:22:02.211Z,15.00
2018-05-12T06:24:28.461Z,15.20
2018-05-12T06:26:54.691Z,15.20
2018-05-12T06:29:20.940Z,15.30
2018-05-12T06:31:47.158Z,15.40
2018-05-12T06:34:13.383Z,15.50
2018-05-12T06:36:39.605Z,15.60
2018-05-12T06:39:05.855Z,15.70
2018-05-12T06:41:32.072Z,15.80
2018-05-12T06:43:58.333Z,15.90
2018-05-12T06:46:24.580Z,16.00
2018-05-12T06:48:50.835Z,16.00
2018-05-12T06:51:17.044Z,16.10
2018-05-12T06:53:43.271Z,16.10
2018-05-12T06:56:10.244Z,16.40
2018-05-12T06:58:36.463Z,16.30
2018-05-12T07:01:03.430Z,16.50
2018-05-12T07:03:30.415Z,16.60
2018-05-12T07:05:56.639Z,16.60
2018-05-12T07:08:22.853Z,16.70
2018-05-12T07:10:49.099Z,16.70
2018-05-12T07:13:15.523Z,16.80
2018-05-12T07:15:41.765Z,16.90
2018-05-12T07:18:07.993Z,16.90
2018-05-12T07:20:34.207Z,17.10
2018-05-12T07:23:00.429Z,17.20
2018-05-12T07:25:26.691Z,17.20
2018-05-12T07:27:52.889Z,17.30
2018-05-12T07:30:19.915Z,17.60
2018-05-12T07:32:46.156Z,17.50
2018-05-12T07:35:12.399Z,17.60
2018-05-12T07:37:38.634Z,17.80
2018-05-12T07:40:04.841Z,17.90
2018-05-12T07:42:31.059Z,18.00
2018-05-12T07:44:58.040Z,18.10
2018-05-12T07:47:24.286Z,18.10
2018-05-12T07:49:50.511Z,18.20
2018-05-12T07:52:16.756Z,18.30
2018-05-12T07:54:42.978Z,18.40
2018-05-12T07:57:09.944Z,18.60
2018-05-12T07:59:36.204Z,18.60
2018-05-12T08:02:02.411Z,18.70
2018-05-12T08:04:29.396Z,18.80
2018-05-12T08:06:55.624Z,18.80
2018-05-12T08:09:21.875Z,18.90
2018-05-12T08:11:48.110Z,19.00
2018-05-12T08:14:14.359Z,19.10
2018-05-12T08:16:40.591Z,19.20
2018-05-12T08:19:06.846Z,19.30
2018-05-12T08:21:33.060Z,19.40
2018-05-12T08:24:00.024Z,19.50
2018-05-12T08:26:26.242Z,19.50
2018-05-12T08:28:53.212Z,19.70
2018-05-12T08:31:20.170Z,19.80
2018-05-12T08:33:47.196Z,19.90
2018-05-12T08:36:13.435Z,19.90
2018-05-12T08:38:39.670Z,20.00
2018-05-12T08:41:05.912Z,20.10
2018-05-12T08:43:32.142Z,20.20
2018-05-12T08:45:58.387Z,20.30
2018-05-12T08:48:24.721Z,20.40
2018-05-12T08:50:51.637Z,20.70
2018-05-12T08:53:17.880Z,20.70
2018-05-12T08:55:44.120Z,20.90
2018-05-12T08:58:10.362Z,21.10
2018-05-12T09:00:36.601Z,21.30
2018-05-12T09:03:02.814Z,21.40
2018-05-12T09:05:29.066Z,21.60
2018-05-12T09:07:56.065Z,22.10
2018-05-12T09:10:22.323Z,22.10
2018-05-12T09:12:48.561Z,22.30
2018-05-12T09:15:14.807Z,22.60
2018-05-12T09:17:41.049Z,22.80
2018-05-12T09:20:07.295Z,22.90
2018-05-12T09:22:33.547Z,22.90
2018-05-12T09:24:59.775Z,23.00
2018-05-12T09:27:25.985Z,23.00
2018-05-12T09:29:52.240Z,23.00
2018-05-12T09:32:18.485Z,23.00
2018-05-12T09:34:44.757Z,23.00
2018-05-12T09:37:11.776Z,23.10
2018-05-12T09:39:37.961Z,23.10
2018-05-12T09:42:04.933Z,23.20
2018-05-12T09:44:31.882Z,23.30
2018-05-12T09:46:58.856Z,23.40
2018-05-12T09:49:25.113Z,23.40
2018-05-12T09:51:51.364Z,23.60
2018-05-12T09:54:17.600Z,23.70
2018-05-12T09:56:43.850Z,23.90
2018-05-12T09:59:10.092Z,24.10
2018-05-12T10:01:36.329Z,24.30
2018-05-12T10:04:02.579Z,24.60
2018-05-12T10:06:28.834Z,25.00
2018-05-12T10:08:55.054Z,25.40
2018-05-12T10:11:21.298Z,25.70
2018-05-12T10:13:47.582Z,26.00
2018-05-12T10:16:13.808Z,26.30
2018-05-12T10:18:40.043Z,26.60
2018-05-12T10:21:06.274Z,26.80
2018-05-12T10:23:32.518Z,26.90
2018-05-12T10:25:58.771Z,26.90
2018-05-12T10:28:25.006Z,27.10
2018-05-12T10:30:51.256Z,27.20
2018-05-12T10:33:17.497Z,27.50
2018-05-12T10:35:43.750Z,27.80
2018-05-12T10:38:10.721Z,28.10
2018-05-12T10:40:36.988Z,28.00
2018-05-12T10:43:03.259Z,28.10
2018-05-12T10:45:29.528Z,28.30
2018-05-12T10:47:55.734Z,28.50
2018-05-12T10:50:21.998Z,28.70
2018-05-12T10:52:48.256Z,28.80
2018-05-12T10:55:15.221Z,29.20
2018-05-12T10:57:41.474Z,29.20
2018-05-12T11:00:07.706Z,29.30
2018-05-12T11:02:34.674Z,29.70
2018-05-12T11:05:00.886Z,29.60
2018-05-12T11:07:27.868Z,29.80
2018-05-12T11:09:54.098Z,29.80
2018-05-12T11:12:21.174Z,30.00
2018-05-12T11:14:47.389Z,30.00
2018-05-12T11:17:14.385Z,30.50
2018-05-12T11:19:40.672Z,30.50
2018-05-12T11:22:06.913Z,30.70
2018-05-12T11:24:33.123Z,31.00
2018-05-12T11:26:59.366Z,31.10
2018-05-12T11:29:25.624Z,31.30
2018-05-12T11:31:51.851Z,31.40
2018-05-12T11:34:18.081Z,31.50
2018-05-12T11:36:44.318Z,31.70
2018-05-12T11:39:10.527Z,31.80
2018-05-12T11:41:36.777Z,31.70
2018-05-12T11:44:03.051Z,31.60
2018-05-12T11:46:29.283Z,31.70
2018-05-12T11:48:55.565Z,32.00
2018-05-12T11:51:21.834Z,32.20
2018-05-12T11:53:48.098Z,32.30
2018-05-12T11:56:14.337Z,32.50
2018-05-12T11:58:40.553Z,32.60
2018-05-12T12:01:06.793Z,32.50
2018-05-12T12:03:33.775Z,33.00
2018-05-12T12:05:59.987Z,32.90
2018-05-12T12:08:26.945Z,33.30
2018-05-12T12:10:53.915Z,33.30
2018-05-12T12:13:20.236Z,33.20
2018-05-12T12:15:47.213Z,33.20
2018-05-12T12:18:13.465Z,33.10
2018-05-12T12:20:39.721Z,33.30
2018-05-12T12:23:05.959Z,33.20
2018-05-12T12:25:32.210Z,33.20
2018-05-12T12:27:58.458Z,33.30
2018-05-12T12:30:24.662Z,33.60
2018-05-12T12:32:50.903Z,33.70
2018-05-12T12:35:17.132Z,33.70
2018-05-12T12:37:43.379Z,33.70
2018-05-12T12:40:09.597Z,33.60
2018-05-12T12:42:36.571Z,33.90
2018-05-12T12:45:02.953Z,33.90
2018-05-12T12:47:29.076Z,34.10
2018-05-12T12:49:55.342Z,34.30
2018-05-12T12:52:21.587Z,34.40
2018-05-12T12:54:47.832Z,34.50
2018-05-12T12:57:14.048Z,34.30
2018-05-12T12:59:40.296Z,34.10
2018-05-12T13:02:06.494Z,33.90
2018-05-12T13:04:32.734Z,34.00
2018-05-12T13:06:58.947Z,34.30
2018-05-12T13:09:25.168Z,34.60
2018-05-12T13:11:51.412Z,34.80
2018-05-12T13:14:17.664Z,34.80
2018-05-12T13:16:43.891Z,34.80
2018-05-12T13:19:10.132Z,35.00
2018-05-12T13:21:36.399Z,35.00
2018-05-12T13:24:02.646Z,34.90
2018-05-12T13:26:29.625Z,34.80
2018-05-12T13:28:55.890Z,34.80
2018-05-12T13:31:22.115Z,34.60
2018-05-12T13:33:48.378Z,34.30
2018-05-12T13:36:14.596Z,34.10
2018-05-12T13:38:40.836Z,34.10
2018-05-12T13:41:07.061Z,34.10
2018-05-12T13:43:33.303Z,34.10
2018-05-12T13:45:59.524Z,34.20
2018-05-12T13:48:25.755Z,34.30
2018-05-12T13:50:51.989Z,34.50
2018-05-12T13:53:18.346Z,34.70
2018-05-12T13:55:45.367Z,34.70
2018-05-12T13:58:11.596Z,34.70
2018-05-12T14:00:37.862Z,34.80
2018-05-12T14:03:04.089Z,35.10
2018-05-12T14:05:30.285Z,35.30
2018-05-12T14:07:56.537Z,35.50
2018-05-12T14:10:22.779Z,35.50
2018-05-12T14:12:49.064Z,35.50
2018-05-12T14:15:15.321Z,35.50
2018-05-12T14:17:41.535Z,35.60
2018-05-12T14:20:07.773Z,35.50
2018-05-12T14:22:34.780Z,34.70
2018-05-12T14:25:01.007Z,34.60
2018-05-12T14:27:27.981Z,34.80
2018-05-12T14:29:55.041Z,35.00
2018-05-12T14:32:21.217Z,35.00
2018-05-12T14:34:47.468Z,35.20
2018-05-12T14:37:13.672Z,35.20
2018-05-12T14:39:39.893Z,34.60
2018-05-12T14:42:06.867Z,32.60
2018-05-12T14:44:33.119Z,32.50
2018-05-12T14:46:59.332Z,31.60
2018-05-12T14:49:26.341Z,30.70
2018-05-12T14:51:52.571Z,30.60
2018-05-12T14:54:19.090Z,31.10
2018-05-12T14:56:45.340Z,31.30
2018-05-12T14:59:11.568Z,30.90
2018-05-12T15:01:37.787Z,30.30
2018-05-12T15:04:04.032Z,30.30
2018-05-12T15:06:31.010Z,31.70
2018-05-12T15:08:57.236Z,31.70
2018-05-12T15:11:23.488Z,32.30
2018-05-12T15:13:50.524Z,31.90
2018-05-12T15:16:16.834Z,31.90
2018-05-12T15:18:43.073Z,31.20
2018-05-12T15:21:09.313Z,31.10
2018-05-12T15:23:36.290Z,30.30
2018-05-12T15:26:02.550Z,30.30
2018-05-12T15:28:29.509Z,29.30
2018-05-12T15:30:56.500Z,29.60
2018-05-12T15:33:22.743Z,29.50
2018-05-12T15:35:48.984Z,30.10
2018-05-12T15:38:15.627Z,30.70
2018-05-12T15:40:41.863Z,31.10
2018-05-12T15:43:08.115Z,31.50
2018-05-12T15:45:34.352Z,31.70
2018-05-12T15:48:00.600Z,32.10
2018-05-12T15:50:26.872Z,32.30
2018-05-12T15:52:53.844Z,32.90
2018-05-12T15:55:20.394Z,32.90
2018-05-12T15:57:46.648Z,33.10
2018-05-12T16:00:12.920Z,33.00
2018-05-12T16:02:39.188Z,33.00
2018-05-12T16:05:05.438Z,33.10
2018-05-12T16:07:31.674Z,33.00
2018-05-12T16:09:57.895Z,32.50
2018-05-12T16:12:24.214Z,32.30
2018-05-12T16:14:50.508Z,32.20
2018-05-12T16:17:23.536Z,32.30
2018-05-12T16:19:49.763Z,32.50
2018-05-12T16:22:15.995Z,32.50
2018-05-12T16:24:42.217Z,32.40
2018-05-12T16:27:08.465Z,32.50
2018-05-12T16:29:34.691Z,32.30
2018-05-12T16:32:00.957Z,31.80
2018-05-12T16:34:27.198Z,30.90
2018-05-12T16:36:53.417Z,30.30
2018-05-12T16:39:19.665Z,29.70
2018-05-12T16:41:45.920Z,29.10
2018-05-12T16:44:12.143Z,28.40
2018-05-12T16:46:38.385Z,27.80
2018-05-12T16:49:04.596Z,27.40
2018-05-12T16:51:30.845Z,27.00
2018-05-12T16:53:57.064Z,26.70
2018-05-12T16:56:23.486Z,26.50
2018-05-12T16:58:49.703Z,26.20
2018-05-12T17:01:15.935Z,25.90
2018-05-12T17:03:42.161Z,25.40
2018-05-12T17:06:08.367Z,24.70
2018-05-12T17:08:34.580Z,24.20
2018-05-12T17:11:00.789Z,23.80
2018-05-12T17:13:27.043Z,23.30
2018-05-12T17:15:53.260Z,22.70
2018-05-12T17:18:19.492Z,22.30
2018-05-12T17:20:45.720Z,22.00
2018-05-12T17:23:11.969Z,21.70
2018-05-12T17:25:38.196Z,21.50
2018-05-12T17:28:04.431Z,21.30
2018-05-12T17:30:31.377Z,20.80
2018-05-12T17:32:57.600Z,20.80
2018-05-12T17:35:23.814Z,20.60
2018-05-12T17:37:50.138Z,20.50
2018-05-12T17:40:17.058Z,20.30
2018-05-12T17:42:44.024Z,20.20
2018-05-12T17:45:10.268Z,20.10
2018-05-12T17:47:36.527Z,20.10
2018-05-12T17:50:02.823Z,20.00
2018-05-12T17:52:29.048Z,20.00
2018-05-12T17:54:55.270Z,20.00
2018-05-12T17:57:21.762Z,19.90
2018-05-12T17:59:48.777Z,19.90
2018-05-12T18:02:15.063Z,19.90
2018-05-12T18:04:41.301Z,19.90
2018-05-12T18:07:08.276Z,20.00
2018-05-12T18:09:34.517Z,20.00
2018-05-12T18:12:00.862Z,20.00
2018-05-12T18:14:27.104Z,19.90
2018-05-12T18:16:53.333Z,19.80
2018-05-12T18:19:20.304Z,19.80
2018-05-12T18:21:46.547Z,19.80
2018-05-12T18:24:12.765Z,19.70
2018-05-12T18:26:39.045Z,19.70
2018-05-12T18:29:05.300Z,19.60
2018-05-12T18:31:31.536Z,19.60
2018-05-12T18:33:57.788Z,19.50
2018-05-12T18:36:24.061Z,19.50
2018-05-12T18:38:50.281Z,19.40
2018-05-12T18:41:16.553Z,19.30
2018-05-12T18:43:43.529Z,19.20
2018-05-12T18:46:09.787Z,19.20
2018-05-12T18:48:36.037Z,19.10
2018-05-12T18:51:02.263Z,19.10
2018-05-12T18:53:28.507Z,19.10
2018-05-12T18:55:54.761Z,19.00
2018-05-12T18:58:21.089Z,19.00
2018-05-12T19:00:47.349Z,19.10
2018-05-12T19:03:13.569Z,19.00
2018-05-12T19:05:39.852Z,19.10
2018-05-12T19:08:06.129Z,19.10
2018-05-12T19:10:33.119Z,19.00
2018-05-12T19:12:59.413Z,18.90
2018-05-12T19:15:26.438Z,18.80
2018-05-12T19:17:52.641Z,18.80
2018-05-12T19:20:18.925Z,18.70
2018-05-12T19:22:45.154Z,18.60
2018-05-12T19:25:11.403Z,18.60
2018-05-12T19:27:37.706Z,18.50
2018-05-12T19:30:03.962Z,18.50
2018-05-12T19:32:30.246Z,18.60
2018-05-12T19:34:56.502Z,18.60
2018-05-12T19:37:22.743Z,18.60
2018-05-12T19:39:49.755Z,18.70
2018-05-12T19:42:16.012Z,18.70
2018-05-12T19:44:42.263Z,18.70
2018-05-12T19:47:08.536Z,18.70
2018-05-12T19:49:34.845Z,18.60
2018-05-12T19:52:01.046Z,18.60
2018-05-12T19:54:27.276Z,18.50
2018-05-12T19:56:53.598Z,18.40
2018-05-12T19:59:20.244Z,18.40
2018-05-12T20:01:47.982Z,18.30
2018-05-12T20:04:14.190Z,18.30
2018-05-12T20:06:40.476Z,18.30
2018-05-12T20:09:06.723Z,18.30
2018-05-12T20:11:33.786Z,18.20
2018-05-12T20:14:00.021Z,18.20
2018-05-12T20:16:26.329Z,18.10
2018-05-12T20:18:59.372Z,18.10
2018-05-12T20:21:25.655Z,17.90
2018-05-12T20:23:51.924Z,17.90
2018-05-12T20:26:18.934Z,17.80
2018-05-12T20:28:45.181Z,17.80
2018-05-12T20:31:11.494Z,17.80
2018-05-12T20:33:37.763Z,17.70
2018-05-12T20:36:04.009Z,17.70
2018-05-12T20:38:30.290Z,17.60
2018-05-12T20:40:56.570Z,17.60
2018-05-12T20:43:23.571Z,17.50
2018-05-12T20:45:49.821Z,17.40
2018-05-12T20:48:16.057Z,17.40
2018-05-12T20:50:42.323Z,17.30
2018-05-12T20:53:08.545Z,17.30
2018-05-12T20:55:34.802Z,17.20
2018-05-12T20:58:01.023Z,17.20
2018-05-12T21:00:27.345Z,17.20
2018-05-12T21:02:53.638Z,17.10
2018-05-12T21:05:19.872Z,17.10
2018-05-12T21:07:46.112Z,17.00
2018-05-12T21:10:12.349Z,17.00
2018-05-12T21:12:38.603Z,16.90
2018-05-12T21:15:04.833Z,16.80
2018-05-12T21:17:31.060Z,16.70
2018-05-12T21:19:57.290Z,16.60
2018-05-12T21:22:23.550Z,16.60
2018-05-12T21:24:49.795Z,16.50
2018-05-12T21:27:16.046Z,16.50
2018-05-12T21:29:42.276Z,16.40
2018-05-12T21:32:08.537Z,16.40
2018-05-12T21:34:34.781Z,16.40
2018-05-12T21:37:01.020Z,16.30
2018-05-12T21:39:27.986Z,16.20
2018-05-12T21:41:55.007Z,16.10
2018-05-12T21:44:21.230Z,16.10
2018-05-12T21:46:48.238Z,16.10
2018-05-12T21:49:15.217Z,16.00
2018-05-12T21:51:41.492Z,16.00
2018-05-12T21:54:07.702Z,16.00
2018-05-12T21:56:33.945Z,15.90
2018-05-12T21:59:00.295Z,15.80
2018-05-12T22:01:26.927Z,15.80
2018-05-12T22:03:53.211Z,15.60
2018-05-12T22:06:19.502Z,15.60
2018-05-12T22:08:46.514Z,15.50
2018-05-12T22:11:12.762Z,15.50
2018-05-12T22:13:39.017Z,15.40
2018-05-12T22:16:06.022Z,15.40
2018-05-12T22:18:32.354Z,15.40
2018-05-12T22:20:58.514Z,15.40
2018-05-12T22:23:24.797Z,15.30
2018-05-12T22:25:51.024Z,15.30
2018-05-12T22:28:17.266Z,15.20
2018-05-12T22:30:43.496Z,15.20
2018-05-12T22:33:09.760Z,15.20
2018-05-12T22:35:36.002Z,15.20
2018-05-12T22:38:02.248Z,15.20
2018-05-12T22:40:30.299Z,15.20
2018-05-12T22:42:56.591Z,15.20
2018-05-12T22:45:23.572Z,15.10
2018-05-12T22:47:49.795Z,15.00
2018-05-12T22:50:16.757Z,15.00
2018-05-12T22:52:43.021Z,15.00
2018-05-12T22:55:09.251Z,14.90
2018-05-12T22:57:35.519Z,14.90
2018-05-12T23:00:01.754Z,14.80
2018-05-12T23:02:28.243Z,14.80
2018-05-12T23:04:55.212Z,14.60
2018-05-12T23:07:22.185Z,14.60
2018-05-12T23:09:48.433Z,14.60
2018-05-12T23:12:14.727Z,14.50
2018-05-12T23:14:40.972Z,14.60
2018-05-12T23:17:07.206Z,14.50
2018-05-12T23:19:33.434Z,14.50
2018-05-12T23:21:59.652Z,14.50
2018-05-12T23:24:25.888Z,14.50
2018-05-12T23:26:52.120Z,14.40
2018-05-12T23:29:18.348Z,14.40
2018-05-12T23:31:44.588Z,14.40
2018-05-12T23:34:10.834Z,14.30
2018-05-12T23:36:37.052Z,14.30
2018-05-12T23:39:03.335Z,14.30
2018-05-12T23:41:29.560Z,14.30
2018-05-12T23:43:55.788Z,14.30
2018-05-12T23:46:22.758Z,14.20
2018-05-12T23:48:49.019Z,14.20
2018-05-12T23:51:15.301Z,14.20
2018-05-12T23:53:41.523Z,14.20
2018-05-12T23:56:07.750Z,14.20
2018-05-12T23:58:33.954Z,14.20
